sensor_id;sensor_type;location;lat;lon;timestamp;temperature;humidity
27188;DHT22;14708;50.872;5.306;2023-07-24T00:00:37;24.40;59.50
27188;DHT22;14708;50.872;5.306;2023-07-24T00:03:04;24.40;59.20
27188;DHT22;14708;50.872;5.306;2023-07-24T00:05:30;24.40;59.30
27188;DHT22;14708;50.872;5.306;2023-07-24T00:07:58;24.30;59.40
27188;DHT22;14708;50.872;5.306;2023-07-24T00:10:24;24.40;59.40
27188;DHT22;14708;50.872;5.306;2023-07-24T00:12:50;24.30;59.30
27188;DHT22;14708;50.872;5.306;2023-07-24T00:15:15;24.40;59.10
27188;DHT22;14708;50.872;5.306;2023-07-24T00:17:41;24.30;59.00
27188;DHT22;14708;50.872;5.306;2023-07-24T00:20:07;24.40;59.00
27188;DHT22;14708;50.872;5.306;2023-07-24T00:22:33;24.30;59.10
27188;DHT22;14708;50.872;5.306;2023-07-24T00:24:59;24.40;58.90
27188;DHT22;14708;50.872;5.306;2023-07-24T00:27:24;24.30;59.10
27188;DHT22;14708;50.872;5.306;2023-07-24T00:29:50;24.30;59.00
27188;DHT22;14708;50.872;5.306;2023-07-24T00:32:16;24.30;59.10
27188;DHT22;14708;50.872;5.306;2023-07-24T00:34:41;24.40;58.80
27188;DHT22;14708;50.872;5.306;2023-07-24T00:37:07;24.30;58.90
27188;DHT22;14708;50.872;5.306;2023-07-24T00:39:33;24.30;58.90
27188;DHT22;14708;50.872;5.306;2023-07-24T00:41:58;24.30;58.80
27188;DHT22;14708;50.872;5.306;2023-07-24T00:44:24;24.30;58.90
27188;DHT22;14708;50.872;5.306;2023-07-24T00:46:50;24.30;58.80
27188;DHT22;14708;50.872;5.306;2023-07-24T00:49:16;24.30;58.80
27188;DHT22;14708;50.872;5.306;2023-07-24T00:51:42;24.30;58.70
27188;DHT22;14708;50.872;5.306;2023-07-24T00:54:11;24.30;58.80
27188;DHT22;14708;50.872;5.306;2023-07-24T00:56:40;24.30;58.70
27188;DHT22;14708;50.872;5.306;2023-07-24T00:59:08;24.30;58.80
27188;DHT22;14708;50.872;5.306;2023-07-24T01:01:34;24.30;58.70
27188;DHT22;14708;50.872;5.306;2023-07-24T01:04:01;24.30;58.60
27188;DHT22;14708;50.872;5.306;2023-07-24T01:06:29;24.30;58.60
27188;DHT22;14708;50.872;5.306;2023-07-24T01:08:55;24.30;58.50
27188;DHT22;14708;50.872;5.306;2023-07-24T01:11:37;24.30;58.50
27188;DHT22;14708;50.872;5.306;2023-07-24T01:14:44;24.30;58.50
27188;DHT22;14708;50.872;5.306;2023-07-24T01:17:14;24.30;58.60
27188;DHT22;14708;50.872;5.306;2023-07-24T01:19:49;24.30;58.70
27188;DHT22;14708;50.872;5.306;2023-07-24T01:25:31;24.30;58.50
27188;DHT22;14708;50.872;5.306;2023-07-24T01:27:57;24.30;58.50
27188;DHT22;14708;50.872;5.306;2023-07-24T01:30:23;24.20;58.50
27188;DHT22;14708;50.872;5.306;2023-07-24T01:32:49;24.20;58.40
27188;DHT22;14708;50.872;5.306;2023-07-24T01:35:17;24.30;58.50
27188;DHT22;14708;50.872;5.306;2023-07-24T01:37:43;24.20;58.40
27188;DHT22;14708;50.872;5.306;2023-07-24T01:40:14;24.20;58.50
27188;DHT22;14708;50.872;5.306;2023-07-24T01:42:40;24.20;58.40
27188;DHT22;14708;50.872;5.306;2023-07-24T01:45:07;24.20;58.50
27188;DHT22;14708;50.872;5.306;2023-07-24T01:47:33;24.20;58.80
27188;DHT22;14708;50.872;5.306;2023-07-24T01:50:03;24.20;58.50
27188;DHT22;14708;50.872;5.306;2023-07-24T01:52:29;24.20;58.50
27188;DHT22;14708;50.872;5.306;2023-07-24T01:54:55;24.20;58.40
27188;DHT22;14708;50.872;5.306;2023-07-24T01:57:21;24.20;58.50
27188;DHT22;14708;50.872;5.306;2023-07-24T01:59:46;24.20;58.50
27188;DHT22;14708;50.872;5.306;2023-07-24T02:02:14;24.20;58.40
27188;DHT22;14708;50.872;5.306;2023-07-24T02:04:42;24.20;58.40
27188;DHT22;14708;50.872;5.306;2023-07-24T02:07:08;24.20;58.30
27188;DHT22;14708;50.872;5.306;2023-07-24T02:09:34;24.20;58.20
27188;DHT22;14708;50.872;5.306;2023-07-24T02:12:00;24.20;58.30
27188;DHT22;14708;50.872;5.306;2023-07-24T02:14:27;24.20;58.30
27188;DHT22;14708;50.872;5.306;2023-07-24T02:16:53;24.20;58.20
27188;DHT22;14708;50.872;5.306;2023-07-24T02:19:19;24.20;58.20
27188;DHT22;14708;50.872;5.306;2023-07-24T02:21:44;24.20;58.40
27188;DHT22;14708;50.872;5.306;2023-07-24T02:24:10;24.10;58.50
27188;DHT22;14708;50.872;5.306;2023-07-24T02:26:36;24.10;58.40
27188;DHT22;14708;50.872;5.306;2023-07-24T02:29:02;24.10;58.30
27188;DHT22;14708;50.872;5.306;2023-07-24T02:31:30;24.10;58.40
27188;DHT22;14708;50.872;5.306;2023-07-24T02:33:55;24.10;58.20
27188;DHT22;14708;50.872;5.306;2023-07-24T02:36:21;24.10;58.10
27188;DHT22;14708;50.872;5.306;2023-07-24T02:38:49;24.10;58.10
27188;DHT22;14708;50.872;5.306;2023-07-24T02:41:14;24.10;58.20
27188;DHT22;14708;50.872;5.306;2023-07-24T02:43:40;24.10;58.40
27188;DHT22;14708;50.872;5.306;2023-07-24T02:46:06;24.10;58.20
27188;DHT22;14708;50.872;5.306;2023-07-24T02:48:34;24.10;58.30
27188;DHT22;14708;50.872;5.306;2023-07-24T02:51:00;24.10;58.10
27188;DHT22;14708;50.872;5.306;2023-07-24T02:53:30;24.10;58.20
27188;DHT22;14708;50.872;5.306;2023-07-24T02:55:56;24.10;57.90
27188;DHT22;14708;50.872;5.306;2023-07-24T02:58:22;24.10;57.90
27188;DHT22;14708;50.872;5.306;2023-07-24T03:00:47;24.10;57.90
27188;DHT22;14708;50.872;5.306;2023-07-24T03:03:13;24.10;58.00
27188;DHT22;14708;50.872;5.306;2023-07-24T03:05:38;24.10;58.10
27188;DHT22;14708;50.872;5.306;2023-07-24T03:08:04;24.10;58.00
27188;DHT22;14708;50.872;5.306;2023-07-24T03:10:30;24.10;57.90
27188;DHT22;14708;50.872;5.306;2023-07-24T03:12:55;24.10;57.90
27188;DHT22;14708;50.872;5.306;2023-07-24T03:15:21;24.10;57.90
27188;DHT22;14708;50.872;5.306;2023-07-24T03:17:48;24.10;57.90
27188;DHT22;14708;50.872;5.306;2023-07-24T03:20:18;24.10;57.90
27188;DHT22;14708;50.872;5.306;2023-07-24T03:22:44;24.10;58.00
27188;DHT22;14708;50.872;5.306;2023-07-24T03:25:10;24.10;57.90
27188;DHT22;14708;50.872;5.306;2023-07-24T03:27:36;24.10;57.90
27188;DHT22;14708;50.872;5.306;2023-07-24T03:30:03;24.10;58.60
27188;DHT22;14708;50.872;5.306;2023-07-24T03:32:29;24.10;57.90
27188;DHT22;14708;50.872;5.306;2023-07-24T03:34:54;24.10;58.00
27188;DHT22;14708;50.872;5.306;2023-07-24T03:37:20;24.10;57.80
27188;DHT22;14708;50.872;5.306;2023-07-24T03:39:48;24.10;57.90
27188;DHT22;14708;50.872;5.306;2023-07-24T03:42:25;24.10;57.90
27188;DHT22;14708;50.872;5.306;2023-07-24T03:44:51;24.10;57.80
27188;DHT22;14708;50.872;5.306;2023-07-24T03:47:17;24.10;57.90
27188;DHT22;14708;50.872;5.306;2023-07-24T03:49:42;24.10;57.80
27188;DHT22;14708;50.872;5.306;2023-07-24T03:52:11;24.10;57.90
27188;DHT22;14708;50.872;5.306;2023-07-24T03:54:37;24.00;57.70
27188;DHT22;14708;50.872;5.306;2023-07-24T03:57:03;24.00;57.80
27188;DHT22;14708;50.872;5.306;2023-07-24T03:59:28;24.00;57.80
27188;DHT22;14708;50.872;5.306;2023-07-24T04:01:54;24.00;57.80
27188;DHT22;14708;50.872;5.306;2023-07-24T04:04:20;24.10;57.80
27188;DHT22;14708;50.872;5.306;2023-07-24T04:06:46;24.00;57.50
27188;DHT22;14708;50.872;5.306;2023-07-24T04:09:12;24.10;57.50
27188;DHT22;14708;50.872;5.306;2023-07-24T04:11:40;24.00;57.50
27188;DHT22;14708;50.872;5.306;2023-07-24T04:14:09;24.10;57.60
27188;DHT22;14708;50.872;5.306;2023-07-24T04:16:34;24.10;57.70
27188;DHT22;14708;50.872;5.306;2023-07-24T04:19:00;24.10;57.60
27188;DHT22;14708;50.872;5.306;2023-07-24T04:21:26;24.10;57.40
27188;DHT22;14708;50.872;5.306;2023-07-24T04:23:51;24.10;57.30
27188;DHT22;14708;50.872;5.306;2023-07-24T04:26:17;24.10;57.40
27188;DHT22;14708;50.872;5.306;2023-07-24T04:28:43;24.10;57.60
27188;DHT22;14708;50.872;5.306;2023-07-24T04:31:09;24.10;57.60
27188;DHT22;14708;50.872;5.306;2023-07-24T04:33:42;24.10;57.50
27188;DHT22;14708;50.872;5.306;2023-07-24T04:36:07;24.10;57.50
27188;DHT22;14708;50.872;5.306;2023-07-24T04:38:33;24.10;57.50
27188;DHT22;14708;50.872;5.306;2023-07-24T04:41:01;24.10;57.40
27188;DHT22;14708;50.872;5.306;2023-07-24T04:43:28;24.10;57.40
27188;DHT22;14708;50.872;5.306;2023-07-24T04:45:56;24.10;57.50
27188;DHT22;14708;50.872;5.306;2023-07-24T04:48:22;24.10;57.60
27188;DHT22;14708;50.872;5.306;2023-07-24T04:50:53;24.00;57.50
27188;DHT22;14708;50.872;5.306;2023-07-24T04:53:20;24.10;57.70
27188;DHT22;14708;50.872;5.306;2023-07-24T04:55:48;24.00;57.40
27188;DHT22;14708;50.872;5.306;2023-07-24T04:58:14;24.00;57.30
27188;DHT22;14708;50.872;5.306;2023-07-24T05:00:40;24.10;57.50
27188;DHT22;14708;50.872;5.306;2023-07-24T05:03:06;24.10;57.10
27188;DHT22;14708;50.872;5.306;2023-07-24T05:05:34;24.10;57.00
27188;DHT22;14708;50.872;5.306;2023-07-24T05:08:00;24.10;56.90
27188;DHT22;14708;50.872;5.306;2023-07-24T05:10:25;24.10;57.40
27188;DHT22;14708;50.872;5.306;2023-07-24T05:12:51;24.10;57.40
27188;DHT22;14708;50.872;5.306;2023-07-24T05:15:17;24.10;57.50
27188;DHT22;14708;50.872;5.306;2023-07-24T05:17:45;24.00;57.70
27188;DHT22;14708;50.872;5.306;2023-07-24T05:20:11;24.00;57.70
27188;DHT22;14708;50.872;5.306;2023-07-24T05:22:37;24.00;57.60
27188;DHT22;14708;50.872;5.306;2023-07-24T05:25:03;24.00;57.70
27188;DHT22;14708;50.872;5.306;2023-07-24T05:27:31;24.00;57.60
27188;DHT22;14708;50.872;5.306;2023-07-24T05:29:57;24.00;57.60
27188;DHT22;14708;50.872;5.306;2023-07-24T05:32:23;24.00;57.60
27188;DHT22;14708;50.872;5.306;2023-07-24T05:34:48;24.00;57.60
27188;DHT22;14708;50.872;5.306;2023-07-24T05:37:14;24.00;57.70
27188;DHT22;14708;50.872;5.306;2023-07-24T05:39:42;24.00;57.80
27188;DHT22;14708;50.872;5.306;2023-07-24T05:42:07;24.00;57.80
27188;DHT22;14708;50.872;5.306;2023-07-24T05:44:33;24.00;57.70
27188;DHT22;14708;50.872;5.306;2023-07-24T05:47:04;24.00;57.70
27188;DHT22;14708;50.872;5.306;2023-07-24T05:49:30;24.00;57.80
27188;DHT22;14708;50.872;5.306;2023-07-24T05:51:55;24.00;57.80
27188;DHT22;14708;50.872;5.306;2023-07-24T05:54:22;24.00;57.70
27188;DHT22;14708;50.872;5.306;2023-07-24T05:56:48;24.00;57.60
27188;DHT22;14708;50.872;5.306;2023-07-24T05:59:15;24.10;57.30
27188;DHT22;14708;50.872;5.306;2023-07-24T06:01:40;24.00;57.30
27188;DHT22;14708;50.872;5.306;2023-07-24T06:04:06;24.00;57.40
27188;DHT22;14708;50.872;5.306;2023-07-24T06:06:35;24.00;57.50
27188;DHT22;14708;50.872;5.306;2023-07-24T06:09:01;24.00;57.40
27188;DHT22;14708;50.872;5.306;2023-07-24T06:11:28;24.00;57.40
27188;DHT22;14708;50.872;5.306;2023-07-24T06:14:01;24.00;57.50
27188;DHT22;14708;50.872;5.306;2023-07-24T06:16:27;24.00;57.40
27188;DHT22;14708;50.872;5.306;2023-07-24T06:18:52;24.00;57.20
27188;DHT22;14708;50.872;5.306;2023-07-24T06:21:21;24.00;57.30
27188;DHT22;14708;50.872;5.306;2023-07-24T06:23:46;24.00;57.20
27188;DHT22;14708;50.872;5.306;2023-07-24T06:26:12;24.00;57.00
27188;DHT22;14708;50.872;5.306;2023-07-24T06:28:37;24.10;57.20
27188;DHT22;14708;50.872;5.306;2023-07-24T06:31:03;24.10;56.90
27188;DHT22;14708;50.872;5.306;2023-07-24T06:33:29;24.10;57.00
27188;DHT22;14708;50.872;5.306;2023-07-24T06:35:54;24.10;56.80
27188;DHT22;14708;50.872;5.306;2023-07-24T06:38:20;24.10;56.80
27188;DHT22;14708;50.872;5.306;2023-07-24T06:40:47;24.10;57.00
27188;DHT22;14708;50.872;5.306;2023-07-24T06:43:12;24.10;56.90
27188;DHT22;14708;50.872;5.306;2023-07-24T06:45:38;24.10;56.90
27188;DHT22;14708;50.872;5.306;2023-07-24T06:48:04;24.10;57.00
27188;DHT22;14708;50.872;5.306;2023-07-24T06:50:30;24.10;57.00
27188;DHT22;14708;50.872;5.306;2023-07-24T06:52:59;24.10;56.90
27188;DHT22;14708;50.872;5.306;2023-07-24T06:55:24;24.10;56.90
27188;DHT22;14708;50.872;5.306;2023-07-24T06:57:50;24.10;57.00
27188;DHT22;14708;50.872;5.306;2023-07-24T07:00:16;24.10;57.60
27188;DHT22;14708;50.872;5.306;2023-07-24T07:02:41;24.00;57.70
27188;DHT22;14708;50.872;5.306;2023-07-24T07:05:07;24.00;58.40
27188;DHT22;14708;50.872;5.306;2023-07-24T07:07:33;24.00;59.20
27188;DHT22;14708;50.872;5.306;2023-07-24T07:09:58;24.00;58.60
27188;DHT22;14708;50.872;5.306;2023-07-24T07:12:24;24.00;58.60
27188;DHT22;14708;50.872;5.306;2023-07-24T07:14:50;24.00;58.40
27188;DHT22;14708;50.872;5.306;2023-07-24T07:17:16;24.00;58.80
27188;DHT22;14708;50.872;5.306;2023-07-24T07:19:41;24.00;59.40
27188;DHT22;14708;50.872;5.306;2023-07-24T07:22:07;24.00;59.30
27188;DHT22;14708;50.872;5.306;2023-07-24T07:24:33;24.00;59.50
27188;DHT22;14708;50.872;5.306;2023-07-24T07:27:00;24.00;59.70
27188;DHT22;14708;50.872;5.306;2023-07-24T07:29:26;24.00;60.10
27188;DHT22;14708;50.872;5.306;2023-07-24T07:31:51;24.00;60.40
27188;DHT22;14708;50.872;5.306;2023-07-24T07:34:19;24.00;61.80
27188;DHT22;14708;50.872;5.306;2023-07-24T07:36:44;24.10;61.80
27188;DHT22;14708;50.872;5.306;2023-07-24T07:39:10;24.10;62.40
27188;DHT22;14708;50.872;5.306;2023-07-24T07:41:35;24.10;62.70
27188;DHT22;14708;50.872;5.306;2023-07-24T07:44:01;24.00;62.90
27188;DHT22;14708;50.872;5.306;2023-07-24T07:46:27;24.00;62.60
27188;DHT22;14708;50.872;5.306;2023-07-24T07:48:54;24.00;63.80
27188;DHT22;14708;50.872;5.306;2023-07-24T07:51:23;24.00;63.40
27188;DHT22;14708;50.872;5.306;2023-07-24T07:53:51;24.00;63.70
27188;DHT22;14708;50.872;5.306;2023-07-24T07:56:22;24.00;63.70
27188;DHT22;14708;50.872;5.306;2023-07-24T07:58:49;24.00;64.00
27188;DHT22;14708;50.872;5.306;2023-07-24T08:01:16;24.10;63.60
27188;DHT22;14708;50.872;5.306;2023-07-24T08:03:44;24.10;63.10
27188;DHT22;14708;50.872;5.306;2023-07-24T08:06:10;24.10;62.90
27188;DHT22;14708;50.872;5.306;2023-07-24T08:08:35;24.10;62.70
27188;DHT22;14708;50.872;5.306;2023-07-24T08:11:09;24.00;63.20
27188;DHT22;14708;50.872;5.306;2023-07-24T08:13:34;24.10;63.40
27188;DHT22;14708;50.872;5.306;2023-07-24T08:16:01;24.10;63.10
27188;DHT22;14708;50.872;5.306;2023-07-24T08:18:31;24.10;63.00
27188;DHT22;14708;50.872;5.306;2023-07-24T08:20:57;24.10;63.40
27188;DHT22;14708;50.872;5.306;2023-07-24T08:23:23;24.10;63.60
27188;DHT22;14708;50.872;5.306;2023-07-24T08:25:55;24.10;63.30
27188;DHT22;14708;50.872;5.306;2023-07-24T08:28:21;24.10;63.40
27188;DHT22;14708;50.872;5.306;2023-07-24T08:30:59;24.10;63.30
27188;DHT22;14708;50.872;5.306;2023-07-24T08:33:29;24.10;63.90
27188;DHT22;14708;50.872;5.306;2023-07-24T08:36:07;24.10;63.80
27188;DHT22;14708;50.872;5.306;2023-07-24T08:38:34;24.10;64.00
27188;DHT22;14708;50.872;5.306;2023-07-24T08:41:05;24.10;64.30
27188;DHT22;14708;50.872;5.306;2023-07-24T08:43:32;24.10;64.20
27188;DHT22;14708;50.872;5.306;2023-07-24T08:46:00;24.10;63.80
27188;DHT22;14708;50.872;5.306;2023-07-24T08:48:44;24.10;63.80
27188;DHT22;14708;50.872;5.306;2023-07-24T08:51:11;24.10;63.90
27188;DHT22;14708;50.872;5.306;2023-07-24T08:53:38;24.10;63.70
27188;DHT22;14708;50.872;5.306;2023-07-24T08:56:05;24.20;63.60
27188;DHT22;14708;50.872;5.306;2023-07-24T08:58:31;24.10;64.30
27188;DHT22;14708;50.872;5.306;2023-07-24T09:00:59;24.20;64.20
27188;DHT22;14708;50.872;5.306;2023-07-24T09:03:24;24.10;64.50
27188;DHT22;14708;50.872;5.306;2023-07-24T09:05:50;24.10;63.80
27188;DHT22;14708;50.872;5.306;2023-07-24T09:08:16;24.10;63.60
27188;DHT22;14708;50.872;5.306;2023-07-24T09:10:42;24.10;63.90
27188;DHT22;14708;50.872;5.306;2023-07-24T09:13:07;24.10;63.20
27188;DHT22;14708;50.872;5.306;2023-07-24T09:15:44;24.00;63.90
27188;DHT22;14708;50.872;5.306;2023-07-24T09:18:11;24.10;63.50
27188;DHT22;14708;50.872;5.306;2023-07-24T09:20:42;24.10;63.60
27188;DHT22;14708;50.872;5.306;2023-07-24T09:23:09;24.10;64.40
27188;DHT22;14708;50.872;5.306;2023-07-24T09:25:37;24.10;64.80
27188;DHT22;14708;50.872;5.306;2023-07-24T09:30:37;24.10;65.40
27188;DHT22;14708;50.872;5.306;2023-07-24T09:33:03;24.10;65.90
27188;DHT22;14708;50.872;5.306;2023-07-24T09:35:30;24.10;65.80
27188;DHT22;14708;50.872;5.306;2023-07-24T09:38:18;24.10;65.70
27188;DHT22;14708;50.872;5.306;2023-07-24T09:40:45;24.10;65.90
27188;DHT22;14708;50.872;5.306;2023-07-24T09:45:44;24.00;65.70
27188;DHT22;14708;50.872;5.306;2023-07-24T09:48:21;24.00;66.10
27188;DHT22;14708;50.872;5.306;2023-07-24T09:51:04;24.00;65.50
27188;DHT22;14708;50.872;5.306;2023-07-24T09:53:51;24.00;65.50
27188;DHT22;14708;50.872;5.306;2023-07-24T09:56:20;24.00;65.60
27188;DHT22;14708;50.872;5.306;2023-07-24T09:58:48;24.00;65.70
27188;DHT22;14708;50.872;5.306;2023-07-24T10:01:15;24.00;65.30
27188;DHT22;14708;50.872;5.306;2023-07-24T10:03:47;24.00;66.30
27188;DHT22;14708;50.872;5.306;2023-07-24T10:06:13;24.00;66.20
27188;DHT22;14708;50.872;5.306;2023-07-24T10:08:41;24.00;65.40
27188;DHT22;14708;50.872;5.306;2023-07-24T10:11:09;24.00;63.20
27188;DHT22;14708;50.872;5.306;2023-07-24T10:13:36;23.90;62.50
27188;DHT22;14708;50.872;5.306;2023-07-24T10:16:03;23.90;61.80
27188;DHT22;14708;50.872;5.306;2023-07-24T10:18:32;23.90;61.50
27188;DHT22;14708;50.872;5.306;2023-07-24T10:21:03;23.90;61.40
27188;DHT22;14708;50.872;5.306;2023-07-24T10:23:29;23.90;61.60
27188;DHT22;14708;50.872;5.306;2023-07-24T10:25:55;23.90;62.20
27188;DHT22;14708;50.872;5.306;2023-07-24T10:28:33;23.90;62.00
27188;DHT22;14708;50.872;5.306;2023-07-24T10:31:19;23.90;62.20
27188;DHT22;14708;50.872;5.306;2023-07-24T10:34:05;23.90;62.20
27188;DHT22;14708;50.872;5.306;2023-07-24T10:36:35;23.90;62.50
27188;DHT22;14708;50.872;5.306;2023-07-24T10:39:01;23.90;62.80
27188;DHT22;14708;50.872;5.306;2023-07-24T10:41:38;23.90;63.30
27188;DHT22;14708;50.872;5.306;2023-07-24T10:44:05;23.90;63.30
27188;DHT22;14708;50.872;5.306;2023-07-24T10:46:39;23.90;63.10
27188;DHT22;14708;50.872;5.306;2023-07-24T10:49:05;23.90;63.90
27188;DHT22;14708;50.872;5.306;2023-07-24T10:51:31;24.00;63.50
27188;DHT22;14708;50.872;5.306;2023-07-24T10:54:03;24.00;63.40
27188;DHT22;14708;50.872;5.306;2023-07-24T10:56:29;24.00;63.30
27188;DHT22;14708;50.872;5.306;2023-07-24T10:58:55;24.00;63.10
27188;DHT22;14708;50.872;5.306;2023-07-24T11:01:21;24.00;62.80
27188;DHT22;14708;50.872;5.306;2023-07-24T11:03:46;24.00;62.80
27188;DHT22;14708;50.872;5.306;2023-07-24T11:06:18;24.00;63.20
27188;DHT22;14708;50.872;5.306;2023-07-24T11:08:58;24.00;63.30
27188;DHT22;14708;50.872;5.306;2023-07-24T11:11:35;24.00;62.90
27188;DHT22;14708;50.872;5.306;2023-07-24T11:14:04;24.00;63.50
27188;DHT22;14708;50.872;5.306;2023-07-24T11:16:30;24.00;63.50
27188;DHT22;14708;50.872;5.306;2023-07-24T11:18:56;24.00;63.60
27188;DHT22;14708;50.872;5.306;2023-07-24T11:21:23;24.00;63.40
27188;DHT22;14708;50.872;5.306;2023-07-24T11:23:50;24.00;63.60
27188;DHT22;14708;50.872;5.306;2023-07-24T11:26:20;24.00;63.40
27188;DHT22;14708;50.872;5.306;2023-07-24T11:28:46;24.00;63.70
27188;DHT22;14708;50.872;5.306;2023-07-24T11:31:12;24.00;63.80
27188;DHT22;14708;50.872;5.306;2023-07-24T11:33:39;24.00;63.90
27188;DHT22;14708;50.872;5.306;2023-07-24T11:36:05;24.00;63.80
27188;DHT22;14708;50.872;5.306;2023-07-24T11:38:31;24.10;63.90
27188;DHT22;14708;50.872;5.306;2023-07-24T11:40:56;24.10;63.90
27188;DHT22;14708;50.872;5.306;2023-07-24T11:43:23;24.10;64.00
27188;DHT22;14708;50.872;5.306;2023-07-24T11:45:50;24.10;64.20
27188;DHT22;14708;50.872;5.306;2023-07-24T11:48:23;24.10;64.20
27188;DHT22;14708;50.872;5.306;2023-07-24T11:50:54;24.00;64.30
27188;DHT22;14708;50.872;5.306;2023-07-24T11:55:54;24.10;64.00
27188;DHT22;14708;50.872;5.306;2023-07-24T11:58:20;24.00;63.90
27188;DHT22;14708;50.872;5.306;2023-07-24T12:00:48;24.00;63.80
27188;DHT22;14708;50.872;5.306;2023-07-24T12:03:18;24.00;63.80
27188;DHT22;14708;50.872;5.306;2023-07-24T12:05:44;24.10;63.90
27188;DHT22;14708;50.872;5.306;2023-07-24T12:08:10;24.10;63.80
27188;DHT22;14708;50.872;5.306;2023-07-24T12:10:37;24.10;63.60
27188;DHT22;14708;50.872;5.306;2023-07-24T12:13:03;24.10;63.30
27188;DHT22;14708;50.872;5.306;2023-07-24T12:15:30;24.10;63.10
27188;DHT22;14708;50.872;5.306;2023-07-24T12:17:56;24.10;63.20
27188;DHT22;14708;50.872;5.306;2023-07-24T12:20:22;24.10;62.80
27188;DHT22;14708;50.872;5.306;2023-07-24T12:22:48;24.10;63.50
27188;DHT22;14708;50.872;5.306;2023-07-24T12:25:14;24.10;63.10
27188;DHT22;14708;50.872;5.306;2023-07-24T12:27:41;24.10;63.10
27188;DHT22;14708;50.872;5.306;2023-07-24T12:30:08;24.10;63.00
27188;DHT22;14708;50.872;5.306;2023-07-24T12:32:34;24.00;63.00
27188;DHT22;14708;50.872;5.306;2023-07-24T12:34:59;24.10;62.90
27188;DHT22;14708;50.872;5.306;2023-07-24T12:37:25;24.10;62.80
27188;DHT22;14708;50.872;5.306;2023-07-24T12:39:51;24.10;62.60
27188;DHT22;14708;50.872;5.306;2023-07-24T12:42:16;24.10;62.00
27188;DHT22;14708;50.872;5.306;2023-07-24T12:44:43;24.10;62.00
27188;DHT22;14708;50.872;5.306;2023-07-24T12:47:10;24.10;60.70
27188;DHT22;14708;50.872;5.306;2023-07-24T12:49:35;24.10;60.20
27188;DHT22;14708;50.872;5.306;2023-07-24T12:52:02;24.10;60.40
27188;DHT22;14708;50.872;5.306;2023-07-24T12:54:27;24.10;60.40
27188;DHT22;14708;50.872;5.306;2023-07-24T12:56:53;24.10;60.90
27188;DHT22;14708;50.872;5.306;2023-07-24T12:59:18;24.10;61.30
27188;DHT22;14708;50.872;5.306;2023-07-24T13:01:45;24.10;62.00
27188;DHT22;14708;50.872;5.306;2023-07-24T13:04:11;24.10;62.30
27188;DHT22;14708;50.872;5.306;2023-07-24T13:06:37;24.00;62.40
27188;DHT22;14708;50.872;5.306;2023-07-24T13:09:03;24.10;62.40
27188;DHT22;14708;50.872;5.306;2023-07-24T13:11:29;24.00;62.40
27188;DHT22;14708;50.872;5.306;2023-07-24T13:13:55;24.10;63.30
27188;DHT22;14708;50.872;5.306;2023-07-24T13:16:21;24.10;64.50
27188;DHT22;14708;50.872;5.306;2023-07-24T13:18:47;24.10;63.30
27188;DHT22;14708;50.872;5.306;2023-07-24T13:21:13;24.10;62.70
27188;DHT22;14708;50.872;5.306;2023-07-24T13:23:40;24.10;63.40
27188;DHT22;14708;50.872;5.306;2023-07-24T13:26:05;24.10;63.20
27188;DHT22;14708;50.872;5.306;2023-07-24T13:28:33;24.10;63.40
27188;DHT22;14708;50.872;5.306;2023-07-24T13:30:58;24.10;63.50
27188;DHT22;14708;50.872;5.306;2023-07-24T13:33:24;24.10;62.90
27188;DHT22;14708;50.872;5.306;2023-07-24T13:35:49;24.20;63.00
27188;DHT22;14708;50.872;5.306;2023-07-24T13:38:16;24.20;62.50
27188;DHT22;14708;50.872;5.306;2023-07-24T13:40:42;24.20;62.70
27188;DHT22;14708;50.872;5.306;2023-07-24T13:43:07;24.20;62.10
27188;DHT22;14708;50.872;5.306;2023-07-24T13:45:33;24.20;62.00
27188;DHT22;14708;50.872;5.306;2023-07-24T13:47:59;24.10;62.10
27188;DHT22;14708;50.872;5.306;2023-07-24T13:50:24;24.20;62.40
27188;DHT22;14708;50.872;5.306;2023-07-24T13:52:50;24.10;62.30
27188;DHT22;14708;50.872;5.306;2023-07-24T13:55:15;24.20;62.10
27188;DHT22;14708;50.872;5.306;2023-07-24T13:57:41;24.20;61.90
27188;DHT22;14708;50.872;5.306;2023-07-24T14:00:07;24.20;62.00
27188;DHT22;14708;50.872;5.306;2023-07-24T14:02:33;24.20;61.90
27188;DHT22;14708;50.872;5.306;2023-07-24T14:04:58;24.20;61.70
27188;DHT22;14708;50.872;5.306;2023-07-24T14:07:24;24.20;61.20
27188;DHT22;14708;50.872;5.306;2023-07-24T14:09:50;24.20;60.50
27188;DHT22;14708;50.872;5.306;2023-07-24T14:12:15;24.20;60.90
27188;DHT22;14708;50.872;5.306;2023-07-24T14:14:41;24.30;60.40
27188;DHT22;14708;50.872;5.306;2023-07-24T14:17:07;24.20;60.50
27188;DHT22;14708;50.872;5.306;2023-07-24T14:19:33;24.30;61.00
27188;DHT22;14708;50.872;5.306;2023-07-24T14:21:58;24.30;60.60
27188;DHT22;14708;50.872;5.306;2023-07-24T14:24:24;24.20;60.80
27188;DHT22;14708;50.872;5.306;2023-07-24T14:26:49;24.30;60.60
27188;DHT22;14708;50.872;5.306;2023-07-24T14:29:15;24.20;60.90
27188;DHT22;14708;50.872;5.306;2023-07-24T14:31:43;24.20;60.50
27188;DHT22;14708;50.872;5.306;2023-07-24T14:34:09;24.20;60.80
27188;DHT22;14708;50.872;5.306;2023-07-24T14:36:38;24.20;60.10
27188;DHT22;14708;50.872;5.306;2023-07-24T14:39:04;24.20;60.10
27188;DHT22;14708;50.872;5.306;2023-07-24T14:41:30;24.20;59.90
27188;DHT22;14708;50.872;5.306;2023-07-24T14:43:56;24.20;59.50
27188;DHT22;14708;50.872;5.306;2023-07-24T14:46:22;24.20;59.80
27188;DHT22;14708;50.872;5.306;2023-07-24T14:48:47;24.20;59.80
27188;DHT22;14708;50.872;5.306;2023-07-24T14:51:13;24.20;59.60
27188;DHT22;14708;50.872;5.306;2023-07-24T14:53:39;24.20;59.50
27188;DHT22;14708;50.872;5.306;2023-07-24T14:56:05;24.20;59.60
27188;DHT22;14708;50.872;5.306;2023-07-24T14:58:30;24.20;59.90
27188;DHT22;14708;50.872;5.306;2023-07-24T15:00:56;24.20;60.10
27188;DHT22;14708;50.872;5.306;2023-07-24T15:03:22;24.20;60.00
27188;DHT22;14708;50.872;5.306;2023-07-24T15:05:48;24.20;60.50
27188;DHT22;14708;50.872;5.306;2023-07-24T15:08:14;24.20;60.50
27188;DHT22;14708;50.872;5.306;2023-07-24T15:10:40;24.30;60.50
27188;DHT22;14708;50.872;5.306;2023-07-24T15:13:06;24.20;60.10
27188;DHT22;14708;50.872;5.306;2023-07-24T15:15:32;24.30;60.40
27188;DHT22;14708;50.872;5.306;2023-07-24T15:17:59;24.30;60.20
27188;DHT22;14708;50.872;5.306;2023-07-24T15:20:24;24.30;60.20
27188;DHT22;14708;50.872;5.306;2023-07-24T15:22:50;24.30;60.20
27188;DHT22;14708;50.872;5.306;2023-07-24T15:25:19;24.30;60.30
27188;DHT22;14708;50.872;5.306;2023-07-24T15:27:44;24.30;60.20
27188;DHT22;14708;50.872;5.306;2023-07-24T15:30:10;24.40;59.90
27188;DHT22;14708;50.872;5.306;2023-07-24T15:32:36;24.40;61.00
27188;DHT22;14708;50.872;5.306;2023-07-24T15:35:01;24.40;60.20
27188;DHT22;14708;50.872;5.306;2023-07-24T15:37:27;24.40;60.20
27188;DHT22;14708;50.872;5.306;2023-07-24T15:39:55;24.40;60.10